sensor_id;sensor_type;location;lat;lon;timestamp;pressure;altitude;pressure_sealevel;temperature;humidity
34177;BME280;20450;49.074;9.158;2022-07-29T00:01:08;99347.75;;;20.89;87.36
34177;BME280;20450;49.074;9.158;2022-07-29T00:03:46;99339.63;;;20.91;88.54
34177;BME280;20450;49.074;9.158;2022-07-29T00:06:15;99332.56;;;20.83;88.75
34177;BME280;20450;49.074;9.158;2022-07-29T00:08:43;99332.84;;;20.74;88.49
34177;BME280;20450;49.074;9.158;2022-07-29T00:11:14;99330.47;;;20.64;89.62
34177;BME280;20450;49.074;9.158;2022-07-29T00:13:44;99330.84;;;20.47;89.69
34177;BME280;20450;49.074;9.158;2022-07-29T00:16:27;99327.34;;;20.32;90.78
34177;BME280;20450;49.074;9.158;2022-07-29T00:19:01;99322.44;;;20.29;90.86
34177;BME280;20450;49.074;9.158;2022-07-29T00:21:31;99315.50;;;20.28;92.22
34177;BME280;20450;49.074;9.158;2022-07-29T00:23:58;99320.16;;;20.40;91.52
34177;BME280;20450;49.074;9.158;2022-07-29T00:26:25;99309.84;;;20.45;91.67
34177;BME280;20450;49.074;9.158;2022-07-29T00:28:57;99311.41;;;20.54;90.31
34177;BME280;20450;49.074;9.158;2022-07-29T00:31:45;99302.63;;;20.54;90.35
34177;BME280;20450;49.074;9.158;2022-07-29T00:34:15;99298.69;;;20.50;89.50
34177;BME280;20450;49.074;9.158;2022-07-29T00:36:44;99300.09;;;20.46;89.63
34177;BME280;20450;49.074;9.158;2022-07-29T00:39:12;99298.69;;;20.50;89.90
34177;BME280;20450;49.074;9.158;2022-07-29T00:41:39;99295.31;;;20.56;89.19
34177;BME280;20450;49.074;9.158;2022-07-29T00:44:06;99292.31;;;20.59;88.54
34177;BME280;20450;49.074;9.158;2022-07-29T00:46:34;99295.84;;;20.66;89.03
34177;BME280;20450;49.074;9.158;2022-07-29T00:49:01;99292.19;;;20.67;87.52
34177;BME280;20450;49.074;9.158;2022-07-29T00:51:30;99285.94;;;20.68;88.08
34177;BME280;20450;49.074;9.158;2022-07-29T00:54:03;99292.13;;;20.75;87.58
34177;BME280;20450;49.074;9.158;2022-07-29T00:56:33;99295.38;;;20.77;87.73
34177;BME280;20450;49.074;9.158;2022-07-29T00:59:00;99289.94;;;20.64;87.36
34177;BME280;20450;49.074;9.158;2022-07-29T01:01:27;99295.97;;;20.58;88.65
34177;BME280;20450;49.074;9.158;2022-07-29T01:03:56;99291.13;;;20.32;90.08
34177;BME280;20450;49.074;9.158;2022-07-29T01:06:24;99295.88;;;20.37;89.19
34177;BME280;20450;49.074;9.158;2022-07-29T01:08:53;99291.13;;;20.32;88.95
34177;BME280;20450;49.074;9.158;2022-07-29T01:11:22;99297.22;;;20.33;89.77
34177;BME280;20450;49.074;9.158;2022-07-29T01:13:50;99290.31;;;20.32;90.61
34177;BME280;20450;49.074;9.158;2022-07-29T01:16:24;99296.03;;;20.21;90.95
34177;BME280;20450;49.074;9.158;2022-07-29T01:19:06;99293.56;;;20.05;90.18
34177;BME280;20450;49.074;9.158;2022-07-29T01:21:51;99290.63;;;20.00;91.01
34177;BME280;20450;49.074;9.158;2022-07-29T01:24:38;99290.66;;;19.77;91.77
34177;BME280;20450;49.074;9.158;2022-07-29T01:27:32;99289.13;;;19.83;92.00
34177;BME280;20450;49.074;9.158;2022-07-29T01:30:13;99287.41;;;19.90;92.84
34177;BME280;20450;49.074;9.158;2022-07-29T01:32:42;99287.31;;;19.98;94.71
34177;BME280;20450;49.074;9.158;2022-07-29T01:35:20;99281.69;;;20.01;94.23
34177;BME280;20450;49.074;9.158;2022-07-29T01:37:56;99288.59;;;20.02;93.24
34177;BME280;20450;49.074;9.158;2022-07-29T01:40:32;99286.59;;;20.04;93.37
34177;BME280;20450;49.074;9.158;2022-07-29T01:43:10;99287.56;;;20.11;92.45
34177;BME280;20450;49.074;9.158;2022-07-29T01:45:50;99284.38;;;20.15;92.54
34177;BME280;20450;49.074;9.158;2022-07-29T01:48:24;99280.00;;;20.22;92.27
34177;BME280;20450;49.074;9.158;2022-07-29T01:51:02;99283.38;;;20.31;92.22
34177;BME280;20450;49.074;9.158;2022-07-29T01:53:36;99275.34;;;20.39;90.87
34177;BME280;20450;49.074;9.158;2022-07-29T01:56:18;99272.06;;;20.37;90.26
34177;BME280;20450;49.074;9.158;2022-07-29T01:58:48;99284.28;;;20.38;89.21
34177;BME280;20450;49.074;9.158;2022-07-29T02:01:21;99283.94;;;20.41;88.65
34177;BME280;20450;49.074;9.158;2022-07-29T02:03:53;99290.75;;;20.21;89.52
34177;BME280;20450;49.074;9.158;2022-07-29T02:06:23;99282.41;;;19.95;91.76
34177;BME280;20450;49.074;9.158;2022-07-29T02:08:56;99285.66;;;19.45;93.04
34177;BME280;20450;49.074;9.158;2022-07-29T02:11:25;99283.88;;;19.38;95.05
34177;BME280;20450;49.074;9.158;2022-07-29T02:13:54;99274.72;;;19.48;93.71
34177;BME280;20450;49.074;9.158;2022-07-29T02:16:27;99271.72;;;19.51;93.60
34177;BME280;20450;49.074;9.158;2022-07-29T02:18:59;99280.59;;;19.58;94.22
34177;BME280;20450;49.074;9.158;2022-07-29T02:21:29;99280.50;;;19.66;92.58
34177;BME280;20450;49.074;9.158;2022-07-29T02:24:01;99285.69;;;19.60;93.80
34177;BME280;20450;49.074;9.158;2022-07-29T02:26:32;99279.16;;;19.70;93.14
34177;BME280;20450;49.074;9.158;2022-07-29T02:29:01;99280.53;;;19.81;92.37
34177;BME280;20450;49.074;9.158;2022-07-29T02:31:33;99271.50;;;19.75;92.02
34177;BME280;20450;49.074;9.158;2022-07-29T02:34:03;99271.69;;;19.74;91.58
34177;BME280;20450;49.074;9.158;2022-07-29T02:36:35;99268.47;;;19.64;92.90
34177;BME280;20450;49.074;9.158;2022-07-29T02:39:04;99263.53;;;19.61;93.06
34177;BME280;20450;49.074;9.158;2022-07-29T02:41:41;99266.38;;;19.37;94.18
34177;BME280;20450;49.074;9.158;2022-07-29T02:44:14;99260.72;;;19.40;94.03
34177;BME280;20450;49.074;9.158;2022-07-29T02:46:47;99262.34;;;19.18;94.16
34177;BME280;20450;49.074;9.158;2022-07-29T02:49:27;99259.94;;;19.09;94.44
34177;BME280;20450;49.074;9.158;2022-07-29T02:52:03;99263.16;;;19.19;94.52
34177;BME280;20450;49.074;9.158;2022-07-29T02:54:39;99270.00;;;19.36;94.51
34177;BME280;20450;49.074;9.158;2022-07-29T02:57:14;99273.34;;;19.30;93.11
34177;BME280;20450;49.074;9.158;2022-07-29T02:59:48;99262.75;;;19.07;95.56
34177;BME280;20450;49.074;9.158;2022-07-29T03:02:20;99274.09;;;19.16;94.05
34177;BME280;20450;49.074;9.158;2022-07-29T03:04:50;99273.88;;;18.95;95.02
34177;BME280;20450;49.074;9.158;2022-07-29T03:07:20;99275.44;;;19.12;94.87
34177;BME280;20450;49.074;9.158;2022-07-29T03:09:49;99274.78;;;19.10;93.99
34177;BME280;20450;49.074;9.158;2022-07-29T03:12:19;99278.72;;;19.22;93.74
34177;BME280;20450;49.074;9.158;2022-07-29T03:14:47;99275.56;;;19.18;93.28
34177;BME280;20450;49.074;9.158;2022-07-29T03:17:15;99276.69;;;19.24;94.04
34177;BME280;20450;49.074;9.158;2022-07-29T03:19:44;99278.75;;;19.14;92.90
34177;BME280;20450;49.074;9.158;2022-07-29T03:22:11;99278.34;;;19.25;92.79
34177;BME280;20450;49.074;9.158;2022-07-29T03:24:39;99279.94;;;19.34;92.74
34177;BME280;20450;49.074;9.158;2022-07-29T03:27:06;99273.16;;;19.09;93.47
34177;BME280;20450;49.074;9.158;2022-07-29T03:29:33;99272.47;;;18.84;96.29
34177;BME280;20450;49.074;9.158;2022-07-29T03:32:02;99269.56;;;18.71;97.84
34177;BME280;20450;49.074;9.158;2022-07-29T03:34:34;99266.03;;;18.79;96.35
34177;BME280;20450;49.074;9.158;2022-07-29T03:37:05;99275.56;;;18.88;97.20
34177;BME280;20450;49.074;9.158;2022-07-29T03:39:36;99272.72;;;18.67;97.83
34177;BME280;20450;49.074;9.158;2022-07-29T03:42:08;99268.91;;;18.23;100.00
34177;BME280;20450;49.074;9.158;2022-07-29T03:44:41;99262.50;;;18.01;100.00
34177;BME280;20450;49.074;9.158;2022-07-29T03:47:13;99268.47;;;18.03;100.00
34177;BME280;20450;49.074;9.158;2022-07-29T03:49:44;99265.59;;;18.37;100.00
34177;BME280;20450;49.074;9.158;2022-07-29T03:52:16;99268.50;;;18.50;100.00
34177;BME280;20450;49.074;9.158;2022-07-29T03:54:44;99266.94;;;18.63;100.00
34177;BME280;20450;49.074;9.158;2022-07-29T03:57:12;99274.03;;;18.71;100.00
34177;BME280;20450;49.074;9.158;2022-07-29T03:59:43;99265.41;;;18.77;100.00
34177;BME280;20450;49.074;9.158;2022-07-29T04:02:11;99265.56;;;18.83;100.00
34177;BME280;20450;49.074;9.158;2022-07-29T04:04:42;99268.44;;;18.96;99.82
34177;BME280;20450;49.074;9.158;2022-07-29T04:07:11;99271.47;;;19.08;99.50
34177;BME280;20450;49.074;9.158;2022-07-29T04:09:40;99277.19;;;18.66;99.41
34177;BME280;20450;49.074;9.158;2022-07-29T04:12:08;99262.13;;;18.75;99.42
34177;BME280;20450;49.074;9.158;2022-07-29T04:14:36;99262.31;;;18.96;97.20
34177;BME280;20450;49.074;9.158;2022-07-29T04:17:03;99272.47;;;19.15;95.87
34177;BME280;20450;49.074;9.158;2022-07-29T04:19:31;99270.53;;;19.01;94.94
34177;BME280;20450;49.074;9.158;2022-07-29T04:22:00;99276.03;;;18.69;97.32
34177;BME280;20450;49.074;9.158;2022-07-29T04:24:28;99276.28;;;18.82;96.91
34177;BME280;20450;49.074;9.158;2022-07-29T04:26:56;99280.31;;;19.00;96.79
34177;BME280;20450;49.074;9.158;2022-07-29T04:29:23;99290.81;;;19.39;93.72
34177;BME280;20450;49.074;9.158;2022-07-29T04:31:50;99289.34;;;19.36;93.71
34177;BME280;20450;49.074;9.158;2022-07-29T04:34:18;99288.63;;;19.12;94.66
34177;BME280;20450;49.074;9.158;2022-07-29T04:36:45;99287.78;;;19.19;93.69
34177;BME280;20450;49.074;9.158;2022-07-29T04:39:12;99293.88;;;19.65;93.08
34177;BME280;20450;49.074;9.158;2022-07-29T04:41:46;99285.34;;;20.00;90.95
34177;BME280;20450;49.074;9.158;2022-07-29T04:44:18;99285.84;;;20.32;89.10
34177;BME280;20450;49.074;9.158;2022-07-29T04:46:46;99277.78;;;20.55;86.94
34177;BME280;20450;49.074;9.158;2022-07-29T04:49:13;99280.06;;;20.72;86.46
34177;BME280;20450;49.074;9.158;2022-07-29T04:51:40;99278.75;;;20.83;85.41
34177;BME280;20450;49.074;9.158;2022-07-29T04:54:07;99276.59;;;20.72;85.62
34177;BME280;20450;49.074;9.158;2022-07-29T04:56:34;99278.31;;;20.94;85.90
34177;BME280;20450;49.074;9.158;2022-07-29T04:59:01;99280.00;;;21.37;83.87
34177;BME280;20450;49.074;9.158;2022-07-29T05:01:29;99284.69;;;21.77;81.91
34177;BME280;20450;49.074;9.158;2022-07-29T05:03:56;99275.06;;;21.55;82.52
34177;BME280;20450;49.074;9.158;2022-07-29T05:06:26;99289.59;;;21.59;82.81
34177;BME280;20450;49.074;9.158;2022-07-29T05:08:53;99292.81;;;21.54;82.76
34177;BME280;20450;49.074;9.158;2022-07-29T05:11:20;99287.72;;;21.53;82.68
34177;BME280;20450;49.074;9.158;2022-07-29T05:13:52;99291.88;;;21.20;84.52
34177;BME280;20450;49.074;9.158;2022-07-29T05:16:19;99286.53;;;20.99;85.32
34177;BME280;20450;49.074;9.158;2022-07-29T05:18:48;99290.97;;;21.13;85.05
34177;BME280;20450;49.074;9.158;2022-07-29T05:21:15;99289.97;;;21.14;84.75
34177;BME280;20450;49.074;9.158;2022-07-29T05:23:45;99293.50;;;21.21;84.41
34177;BME280;20450;49.074;9.158;2022-07-29T05:26:16;99292.13;;;21.25;84.77
34177;BME280;20450;49.074;9.158;2022-07-29T05:28:43;99304.97;;;21.28;84.42
34177;BME280;20450;49.074;9.158;2022-07-29T05:31:10;99297.22;;;20.33;88.47
34177;BME280;20450;49.074;9.158;2022-07-29T05:33:37;99296.13;;;20.13;91.10
34177;BME280;20450;49.074;9.158;2022-07-29T05:36:05;99304.63;;;20.08;90.93
34177;BME280;20450;49.074;9.158;2022-07-29T05:38:33;99307.13;;;20.39;90.22
34177;BME280;20450;49.074;9.158;2022-07-29T05:41:02;99306.09;;;20.69;89.42
34177;BME280;20450;49.074;9.158;2022-07-29T05:43:30;99301.81;;;20.68;88.86
34177;BME280;20450;49.074;9.158;2022-07-29T05:45:58;99306.09;;;20.69;87.75
34177;BME280;20450;49.074;9.158;2022-07-29T05:51:35;99316.97;;;22.35;82.62
34177;BME280;20450;49.074;9.158;2022-07-29T05:54:02;99316.84;;;23.31;76.56
34177;BME280;20450;49.074;9.158;2022-07-29T05:56:36;99327.94;;;24.71;70.66
34177;BME280;20450;49.074;9.158;2022-07-29T05:59:03;99324.13;;;25.79;65.69
34177;BME280;20450;49.074;9.158;2022-07-29T06:01:43;99323.69;;;26.74;62.76
34177;BME280;20450;49.074;9.158;2022-07-29T06:04:10;99332.59;;;27.22;60.77
34177;BME280;20450;49.074;9.158;2022-07-29T06:06:39;99331.50;;;27.70;59.23
34177;BME280;20450;49.074;9.158;2022-07-29T06:09:06;99329.84;;;27.69;58.90
34177;BME280;20450;49.074;9.158;2022-07-29T06:11:38;99336.47;;;26.72;61.07
34177;BME280;20450;49.074;9.158;2022-07-29T06:14:05;99328.31;;;26.67;62.44
34177;BME280;20450;49.074;9.158;2022-07-29T06:16:32;99334.34;;;27.10;60.93
34177;BME280;20450;49.074;9.158;2022-07-29T06:18:59;99337.78;;;27.76;59.33
34177;BME280;20450;49.074;9.158;2022-07-29T06:21:26;99333.00;;;28.19;57.57
34177;BME280;20450;49.074;9.158;2022-07-29T06:23:54;99344.78;;;28.29;57.42
34177;BME280;20450;49.074;9.158;2022-07-29T06:26:21;99348.13;;;28.82;55.89
34177;BME280;20450;49.074;9.158;2022-07-29T06:28:58;99356.44;;;28.69;56.46
34177;BME280;20450;49.074;9.158;2022-07-29T06:31:25;99351.63;;;29.06;55.10
34177;BME280;20450;49.074;9.158;2022-07-29T06:33:52;99347.72;;;29.53;53.78
34177;BME280;20450;49.074;9.158;2022-07-29T06:36:20;99362.09;;;30.19;51.01
34177;BME280;20450;49.074;9.158;2022-07-29T06:38:50;99359.25;;;30.26;50.67
34177;BME280;20450;49.074;9.158;2022-07-29T06:41:20;99354.34;;;29.90;51.56
34177;BME280;20450;49.074;9.158;2022-07-29T06:43:47;99357.22;;;29.04;53.83
34177;BME280;20450;49.074;9.158;2022-07-29T06:46:20;99352.34;;;29.01;54.88
34177;BME280;20450;49.074;9.158;2022-07-29T06:48:48;99362.63;;;30.05;52.23
34177;BME280;20450;49.074;9.158;2022-07-29T06:51:17;99364.41;;;30.82;49.95
34177;BME280;20450;49.074;9.158;2022-07-29T06:53:50;99360.88;;;31.19;49.89
34177;BME280;20450;49.074;9.158;2022-07-29T06:56:30;99362.84;;;29.70;52.44
34177;BME280;20450;49.074;9.158;2022-07-29T06:58:57;99369.16;;;30.58;51.11
34177;BME280;20450;49.074;9.158;2022-07-29T07:01:24;99368.03;;;30.71;50.17
34177;BME280;20450;49.074;9.158;2022-07-29T07:03:51;99369.91;;;29.20;53.18
34177;BME280;20450;49.074;9.158;2022-07-29T07:06:19;99360.53;;;27.08;58.52
34177;BME280;20450;49.074;9.158;2022-07-29T07:08:46;99360.78;;;27.54;59.16
34177;BME280;20450;49.074;9.158;2022-07-29T07:11:13;99359.78;;;27.37;58.81
34177;BME280;20450;49.074;9.158;2022-07-29T07:13:41;99352.63;;;27.78;57.19
34177;BME280;20450;49.074;9.158;2022-07-29T07:16:08;99357.16;;;27.48;57.51
34177;BME280;20450;49.074;9.158;2022-07-29T07:18:35;99362.50;;;27.78;58.04
34177;BME280;20450;49.074;9.158;2022-07-29T07:21:02;99369.59;;;28.82;55.17
34177;BME280;20450;49.074;9.158;2022-07-29T07:23:29;99371.38;;;27.78;56.56
34177;BME280;20450;49.074;9.158;2022-07-29T07:25:56;99366.13;;;27.54;57.95
34177;BME280;20450;49.074;9.158;2022-07-29T07:28:23;99359.72;;;25.36;64.70
34177;BME280;20450;49.074;9.158;2022-07-29T07:30:52;99372.41;;;26.09;63.34
34177;BME280;20450;49.074;9.158;2022-07-29T07:33:19;99363.50;;;27.36;59.53
34177;BME280;20450;49.074;9.158;2022-07-29T07:35:46;99376.63;;;28.49;56.24
34177;BME280;20450;49.074;9.158;2022-07-29T07:38:13;99374.25;;;28.29;56.97
34177;BME280;20450;49.074;9.158;2022-07-29T07:40:41;99374.63;;;27.80;57.10
34177;BME280;20450;49.074;9.158;2022-07-29T07:43:08;99369.72;;;27.77;57.32
34177;BME280;20450;49.074;9.158;2022-07-29T07:45:35;99371.91;;;27.98;57.42
34177;BME280;20450;49.074;9.158;2022-07-29T07:48:04;99368.81;;;28.70;55.12
34177;BME280;20450;49.074;9.158;2022-07-29T07:50:32;99365.28;;;29.44;52.36
34177;BME280;20450;49.074;9.158;2022-07-29T07:52:59;99371.38;;;29.67;51.40
34177;BME280;20450;49.074;9.158;2022-07-29T07:55:29;99368.88;;;30.38;49.58
34177;BME280;20450;49.074;9.158;2022-07-29T07:58:16;99377.63;;;30.83;48.24
34177;BME280;20450;49.074;9.158;2022-07-29T08:00:43;99367.78;;;31.32;46.33
34177;BME280;20450;49.074;9.158;2022-07-29T08:03:11;99367.34;;;30.80;48.40
34177;BME280;20450;49.074;9.158;2022-07-29T08:05:43;99362.69;;;30.21;49.03
34177;BME280;20450;49.074;9.158;2022-07-29T08:08:11;99364.84;;;29.35;51.07
34177;BME280;20450;49.074;9.158;2022-07-29T08:10:41;99362.69;;;29.09;51.76
34177;BME280;20450;49.074;9.158;2022-07-29T08:13:09;99370.41;;;28.94;52.15
34177;BME280;20450;49.074;9.158;2022-07-29T08:15:36;99360.66;;;29.28;51.66
34177;BME280;20450;49.074;9.158;2022-07-29T08:18:03;99367.88;;;29.95;50.29
34177;BME280;20450;49.074;9.158;2022-07-29T08:20:36;99376.13;;;28.86;53.07
34177;BME280;20450;49.074;9.158;2022-07-29T08:23:09;99375.56;;;28.96;52.39
34177;BME280;20450;49.074;9.158;2022-07-29T08:25:37;99373.41;;;29.49;51.02
34177;BME280;20450;49.074;9.158;2022-07-29T08:28:05;99371.78;;;29.59;50.89
34177;BME280;20450;49.074;9.158;2022-07-29T08:30:33;99368.03;;;29.49;51.85
34177;BME280;20450;49.074;9.158;2022-07-29T08:33:00;99378.81;;;28.86;52.33
34177;BME280;20450;49.074;9.158;2022-07-29T08:35:27;99372.97;;;29.12;52.59
34177;BME280;20450;49.074;9.158;2022-07-29T08:38:02;99366.81;;;27.49;56.96
34177;BME280;20450;49.074;9.158;2022-07-29T08:40:29;99366.25;;;27.59;56.89
34177;BME280;20450;49.074;9.158;2022-07-29T08:42:59;99369.59;;;27.25;57.81
34177;BME280;20450;49.074;9.158;2022-07-29T08:45:41;99357.88;;;26.90;58.36
34177;BME280;20450;49.074;9.158;2022-07-29T08:48:14;99371.88;;;26.25;59.81
34177;BME280;20450;49.074;9.158;2022-07-29T08:50:44;99373.88;;;26.05;62.21
34177;BME280;20450;49.074;9.158;2022-07-29T08:53:15;99365.66;;;26.31;60.25
34177;BME280;20450;49.074;9.158;2022-07-29T08:55:44;99372.66;;;25.70;62.01
34177;BME280;20450;49.074;9.158;2022-07-29T08:58:13;99370.97;;;25.38;63.51
34177;BME280;20450;49.074;9.158;2022-07-29T09:00:42;99367.13;;;25.21;64.47
34177;BME280;20450;49.074;9.158;2022-07-29T09:03:15;99369.63;;;26.22;62.31
34177;BME280;20450;49.074;9.158;2022-07-29T09:05:45;99360.31;;;26.91;59.17
34177;BME280;20450;49.074;9.158;2022-07-29T09:08:16;99367.50;;;27.27;59.60
34177;BME280;20450;49.074;9.158;2022-07-29T09:10:44;99376.06;;;28.06;56.71
34177;BME280;20450;49.074;9.158;2022-07-29T09:13:11;99374.88;;;28.66;54.72
34177;BME280;20450;49.074;9.158;2022-07-29T09:15:38;99363.19;;;27.08;58.19
34177;BME280;20450;49.074;9.158;2022-07-29T09:18:05;99362.22;;;27.68;57.55
34177;BME280;20450;49.074;9.158;2022-07-29T09:20:33;99361.84;;;27.94;56.27
34177;BME280;20450;49.074;9.158;2022-07-29T09:23:07;99363.38;;;27.60;57.58
34177;BME280;20450;49.074;9.158;2022-07-29T09:25:37;99357.78;;;27.14;58.62
34177;BME280;20450;49.074;9.158;2022-07-29T09:28:07;99358.03;;;26.77;57.67
34177;BME280;20450;49.074;9.158;2022-07-29T09:30:35;99353.22;;;27.51;57.17
34177;BME280;20450;49.074;9.158;2022-07-29T09:33:03;99364.69;;;28.22;55.14
34177;BME280;20450;49.074;9.158;2022-07-29T09:35:30;99362.59;;;28.93;53.84
34177;BME280;20450;49.074;9.158;2022-07-29T09:37:57;99356.50;;;29.48;52.38
34177;BME280;20450;49.074;9.158;2022-07-29T09:40:37;99351.25;;;29.42;51.81
34177;BME280;20450;49.074;9.158;2022-07-29T09:43:10;99357.22;;;30.16;49.22
34177;BME280;20450;49.074;9.158;2022-07-29T09:45:38;99356.28;;;30.77;47.97
34177;BME280;20450;49.074;9.158;2022-07-29T09:48:17;99351.41;;;31.17;47.58
34177;BME280;20450;49.074;9.158;2022-07-29T09:50:47;99354.25;;;30.51;47.52
34177;BME280;20450;49.074;9.158;2022-07-29T09:53:29;99353.66;;;30.82;46.31
34177;BME280;20450;49.074;9.158;2022-07-29T09:56:00;99345.47;;;31.36;43.84
34177;BME280;20450;49.074;9.158;2022-07-29T09:58:28;99342.56;;;31.96;42.23
34177;BME280;20450;49.074;9.158;2022-07-29T10:00:56;99344.63;;;31.36;43.10
34177;BME280;20450;49.074;9.158;2022-07-29T10:03:24;99338.75;;;31.39;40.85
34177;BME280;20450;49.074;9.158;2022-07-29T10:06:07;99338.81;;;31.70;41.32
34177;BME280;20450;49.074;9.158;2022-07-29T10:08:36;99344.50;;;32.32;40.40
34177;BME280;20450;49.074;9.158;2022-07-29T10:11:11;99338.56;;;32.71;39.06
34177;BME280;20450;49.074;9.158;2022-07-29T10:13:41;99341.88;;;32.42;38.23
34177;BME280;20450;49.074;9.158;2022-07-29T10:16:10;99340.78;;;32.43;38.14
34177;BME280;20450;49.074;9.158;2022-07-29T10:18:41;99343.22;;;32.81;36.73
34177;BME280;20450;49.074;9.158;2022-07-29T10:21:09;99344.31;;;32.90;36.43
34177;BME280;20450;49.074;9.158;2022-07-29T10:23:48;99333.84;;;31.84;37.09
34177;BME280;20450;49.074;9.158;2022-07-29T10:26:17;99332.69;;;31.75;37.86
34177;BME280;20450;49.074;9.158;2022-07-29T10:28:45;99342.19;;;32.14;36.63
34177;BME280;20450;49.074;9.158;2022-07-29T10:31:18;99331.91;;;32.47;37.19
34177;BME280;20450;49.074;9.158;2022-07-29T10:34:01;99337.69;;;32.66;36.41
34177;BME280;20450;49.074;9.158;2022-07-29T10:36:49;99343.97;;;32.71;35.78
34177;BME280;20450;49.074;9.158;2022-07-29T10:39:36;99330.25;;;32.83;36.07
34177;BME280;20450;49.074;9.158;2022-07-29T10:42:19;99330.22;;;33.29;35.74
34177;BME280;20450;49.074;9.158;2022-07-29T10:45:00;99331.75;;;33.20;35.42
34177;BME280;20450;49.074;9.158;2022-07-29T10:47:31;99343.22;;;33.47;35.06
34177;BME280;20450;49.074;9.158;2022-07-29T10:50:05;99324.09;;;33.79;34.28
34177;BME280;20450;49.074;9.158;2022-07-29T10:52:53;99331.09;;;33.65;34.54
34177;BME280;20450;49.074;9.158;2022-07-29T10:55:32;99315.91;;;33.44;35.08
34177;BME280;20450;49.074;9.158;2022-07-29T10:58:13;99319.78;;;34.08;34.10
34177;BME280;20450;49.074;9.158;2022-07-29T11:00:44;99318.91;;;34.52;34.08
34177;BME280;20450;49.074;9.158;2022-07-29T11:03:43;99318.69;;;34.39;33.55
34177;BME280;20450;49.074;9.158;2022-07-29T11:06:17;99318.69;;;35.22;32.27
34177;BME280;20450;49.074;9.158;2022-07-29T11:09:15;99320.38;;;35.57;32.13
34177;BME280;20450;49.074;9.158;2022-07-29T11:11:43;99316.41;;;36.21;31.94
34177;BME280;20450;49.074;9.158;2022-07-29T11:14:54;99314.13;;;36.57;31.08
34177;BME280;20450;49.074;9.158;2022-07-29T11:17:23;99303.00;;;36.58;30.77
34177;BME280;20450;49.074;9.158;2022-07-29T11:20:31;99299.31;;;35.87;32.22
34177;BME280;20450;49.074;9.158;2022-07-29T11:22:59;99301.44;;;35.95;30.58
34177;BME280;20450;49.074;9.158;2022-07-29T11:25:27;99299.97;;;36.03;31.46
34177;BME280;20450;49.074;9.158;2022-07-29T11:28:17;99296.69;;;36.63;30.04
34177;BME280;20450;49.074;9.158;2022-07-29T11:30:53;99303.06;;;36.77;29.76
34177;BME280;20450;49.074;9.158;2022-07-29T11:33:28;99302.75;;;37.02;29.82
34177;BME280;20450;49.074;9.158;2022-07-29T11:36:16;99290.13;;;36.69;30.00
34177;BME280;20450;49.074;9.158;2022-07-29T11:38:43;99293.53;;;36.79;29.92
34177;BME280;20450;49.074;9.158;2022-07-29T11:41:23;99293.84;;;36.78;29.03
34177;BME280;20450;49.074;9.158;2022-07-29T11:43:53;99302.78;;;36.26;29.86
34177;BME280;20450;49.074;9.158;2022-07-29T11:46:47;99309.88;;;36.98;30.06
34177;BME280;20450;49.074;9.158;2022-07-29T11:49:19;99300.84;;;37.63;28.42
34177;BME280;20450;49.074;9.158;2022-07-29T11:51:57;99305.97;;;37.83;28.41
34177;BME280;20450;49.074;9.158;2022-07-29T11:54:30;99312.44;;;37.87;28.05
34177;BME280;20450;49.074;9.158;2022-07-29T11:57:20;99300.53;;;35.18;30.14
34177;BME280;20450;49.074;9.158;2022-07-29T11:59:47;99291.59;;;34.49;32.33
34177;BME280;20450;49.074;9.158;2022-07-29T12:02:17;99294.41;;;35.51;30.24
34177;BME280;20450;49.074;9.158;2022-07-29T12:05:04;99299.59;;;36.19;29.35
34177;BME280;20450;49.074;9.158;2022-07-29T12:07:38;99288.56;;;36.06;29.04
34177;BME280;20450;49.074;9.158;2022-07-29T12:10:11;99295.47;;;36.27;29.03
34177;BME280;20450;49.074;9.158;2022-07-29T12:12:58;99276.16;;;36.00;29.58
34177;BME280;20450;49.074;9.158;2022-07-29T12:15:25;99270.41;;;35.68;30.55
34177;BME280;20450;49.074;9.158;2022-07-29T12:18:15;99273.28;;;35.53;30.67
34177;BME280;20450;49.074;9.158;2022-07-29T12:21:10;99270.09;;;35.41;29.90
34177;BME280;20450;49.074;9.158;2022-07-29T12:28:39;99262.94;;;33.28;34.24
34177;BME280;20450;49.074;9.158;2022-07-29T12:31:38;99271.50;;;33.05;34.16
34177;BME280;20450;49.074;9.158;2022-07-29T12:35:24;99272.22;;;32.80;34.94
34177;BME280;20450;49.074;9.158;2022-07-29T12:39:42;99260.44;;;32.50;34.67
34177;BME280;20450;49.074;9.158;2022-07-29T12:43:14;99265.88;;;32.18;34.71
34177;BME280;20450;49.074;9.158;2022-07-29T12:47:24;99251.47;;;31.66;36.59
34177;BME280;20450;49.074;9.158;2022-07-29T12:50:08;99258.03;;;31.75;35.10
34177;BME280;20450;49.074;9.158;2022-07-29T12:52:37;99253.22;;;31.51;36.08
34177;BME280;20450;49.074;9.158;2022-07-29T12:55:06;99263.31;;;31.65;35.95
34177;BME280;20450;49.074;9.158;2022-07-29T12:57:44;99253.06;;;31.36;35.23
34177;BME280;20450;49.074;9.158;2022-07-29T13:00:13;99261.78;;;31.48;35.98
34177;BME280;20450;49.074;9.158;2022-07-29T13:02:42;99262.38;;;31.23;36.28
34177;BME280;20450;49.074;9.158;2022-07-29T13:05:10;99257.00;;;31.02;35.92
34177;BME280;20450;49.074;9.158;2022-07-29T13:07:39;99261.06;;;31.04;36.19
34177;BME280;20450;49.074;9.158;2022-07-29T13:10:23;99266.19;;;31.27;36.80
34177;BME280;20450;49.074;9.158;2022-07-29T13:13:04;99256.22;;;31.28;36.40
34177;BME280;20450;49.074;9.158;2022-07-29T13:15:32;99271.97;;;31.41;36.24
34177;BME280;20450;49.074;9.158;2022-07-29T13:18:00;99269.53;;;31.39;35.77
34177;BME280;20450;49.074;9.158;2022-07-29T13:20:28;99273.56;;;31.37;35.67
34177;BME280;20450;49.074;9.158;2022-07-29T13:22:58;99270.63;;;31.17;35.66
34177;BME280;20450;49.074;9.158;2022-07-29T13:25:28;99276.50;;;31.14;35.82
34177;BME280;20450;49.074;9.158;2022-07-29T13:27:56;99274.22;;;31.01;36.69
34177;BME280;20450;49.074;9.158;2022-07-29T13:30:23;99276.78;;;30.91;36.33
34177;BME280;20450;49.074;9.158;2022-07-29T13:32:51;99278.22;;;30.98;36.21
34177;BME280;20450;49.074;9.158;2022-07-29T13:35:19;99274.06;;;30.86;36.10
34177;BME280;20450;49.074;9.158;2022-07-29T13:37:47;99274.44;;;30.94;37.00